sensor_id;sensor_type;location;lat;lon;timestamp;P1;durP1;ratioP1;P2;durP2;ratioP2
72156;SDS011;60035;52.122;5.406;2024-01-16T00:00:29;4.10;;;0.50;;
72156;SDS011;60035;52.122;5.406;2024-01-16T00:02:56;5.22;;;0.43;;
72156;SDS011;60035;52.122;5.406;2024-01-16T00:05:22;3.67;;;1.00;;
72156;SDS011;60035;52.122;5.406;2024-01-16T00:07:49;3.95;;;0.63;;
72156;SDS011;60035;52.122;5.406;2024-01-16T00:10:29;4.45;;;0.68;;
72156;SDS011;60035;52.122;5.406;2024-01-16T00:12:56;4.50;;;0.68;;
72156;SDS011;60035;52.122;5.406;2024-01-16T00:15:25;7.28;;;0.90;;
72156;SDS011;60035;52.122;5.406;2024-01-16T00:17:51;6.13;;;0.65;;
72156;SDS011;60035;52.122;5.406;2024-01-16T00:20:20;7.00;;;0.95;;
72156;SDS011;60035;52.122;5.406;2024-01-16T00:22:48;3.42;;;0.52;;
72156;SDS011;60035;52.122;5.406;2024-01-16T00:25:15;7.22;;;0.80;;
72156;SDS011;60035;52.122;5.406;2024-01-16T00:27:41;5.65;;;0.52;;
72156;SDS011;60035;52.122;5.406;2024-01-16T00:32:54;9.98;;;1.15;;
72156;SDS011;60035;52.122;5.406;2024-01-16T00:35:21;7.07;;;0.70;;
72156;SDS011;60035;52.122;5.406;2024-01-16T00:37:47;3.13;;;0.60;;
72156;SDS011;60035;52.122;5.406;2024-01-16T00:40:24;8.23;;;0.93;;
72156;SDS011;60035;52.122;5.406;2024-01-16T00:42:51;8.27;;;1.20;;
72156;SDS011;60035;52.122;5.406;2024-01-16T00:45:17;5.95;;;0.73;;
72156;SDS011;60035;52.122;5.406;2024-01-16T00:47:44;5.45;;;0.80;;
72156;SDS011;60035;52.122;5.406;2024-01-16T00:50:29;3.92;;;0.88;;
72156;SDS011;60035;52.122;5.406;2024-01-16T00:52:56;4.95;;;0.90;;
72156;SDS011;60035;52.122;5.406;2024-01-16T00:55:23;5.78;;;1.08;;
72156;SDS011;60035;52.122;5.406;2024-01-16T00:57:51;5.95;;;0.85;;
72156;SDS011;60035;52.122;5.406;2024-01-16T01:00:25;6.72;;;0.75;;
72156;SDS011;60035;52.122;5.406;2024-01-16T01:02:52;4.47;;;0.82;;
72156;SDS011;60035;52.122;5.406;2024-01-16T01:05:18;5.72;;;0.85;;
72156;SDS011;60035;52.122;5.406;2024-01-16T01:07:45;5.30;;;1.20;;
72156;SDS011;60035;52.122;5.406;2024-01-16T01:13:36;7.60;;;0.90;;
72156;SDS011;60035;52.122;5.406;2024-01-16T01:16:03;4.88;;;0.82;;
72156;SDS011;60035;52.122;5.406;2024-01-16T01:18:29;6.18;;;0.90;;
72156;SDS011;60035;52.122;5.406;2024-01-16T01:21:03;5.30;;;0.85;;
72156;SDS011;60035;52.122;5.406;2024-01-16T01:23:30;2.38;;;0.52;;
72156;SDS011;60035;52.122;5.406;2024-01-16T01:25:57;7.07;;;0.98;;
72156;SDS011;60035;52.122;5.406;2024-01-16T01:28:24;4.43;;;0.75;;
72156;SDS011;60035;52.122;5.406;2024-01-16T01:30:51;5.03;;;0.70;;
72156;SDS011;60035;52.122;5.406;2024-01-16T01:33:18;1.77;;;0.47;;
72156;SDS011;60035;52.122;5.406;2024-01-16T01:35:45;3.47;;;0.60;;
72156;SDS011;60035;52.122;5.406;2024-01-16T01:38:11;6.43;;;0.52;;
72156;SDS011;60035;52.122;5.406;2024-01-16T01:43:43;6.38;;;0.75;;
72156;SDS011;60035;52.122;5.406;2024-01-16T01:46:10;4.65;;;0.90;;
72156;SDS011;60035;52.122;5.406;2024-01-16T01:54:00;4.97;;;0.73;;
72156;SDS011;60035;52.122;5.406;2024-01-16T01:56:27;2.60;;;0.60;;
72156;SDS011;60035;52.122;5.406;2024-01-16T01:58:56;3.97;;;1.00;;
72156;SDS011;60035;52.122;5.406;2024-01-16T02:01:25;3.28;;;0.77;;
72156;SDS011;60035;52.122;5.406;2024-01-16T02:03:55;8.40;;;0.98;;
72156;SDS011;60035;52.122;5.406;2024-01-16T02:06:23;7.10;;;1.05;;
72156;SDS011;60035;52.122;5.406;2024-01-16T02:08:51;1.83;;;0.43;;
72156;SDS011;60035;52.122;5.406;2024-01-16T02:14:11;4.25;;;0.55;;
72156;SDS011;60035;52.122;5.406;2024-01-16T02:16:39;7.28;;;0.82;;
72156;SDS011;60035;52.122;5.406;2024-01-16T02:19:08;5.03;;;0.88;;
72156;SDS011;60035;52.122;5.406;2024-01-16T02:21:37;3.60;;;0.60;;
72156;SDS011;60035;52.122;5.406;2024-01-16T02:24:17;5.45;;;1.05;;
72156;SDS011;60035;52.122;5.406;2024-01-16T02:26:45;9.80;;;1.35;;
72156;SDS011;60035;52.122;5.406;2024-01-16T02:29:12;5.93;;;0.70;;
72156;SDS011;60035;52.122;5.406;2024-01-16T02:31:39;3.85;;;0.82;;
72156;SDS011;60035;52.122;5.406;2024-01-16T02:34:06;6.40;;;0.90;;
72156;SDS011;60035;52.122;5.406;2024-01-16T02:36:32;4.32;;;0.52;;
72156;SDS011;60035;52.122;5.406;2024-01-16T02:39:08;3.60;;;0.65;;
72156;SDS011;60035;52.122;5.406;2024-01-16T02:41:34;5.72;;;1.17;;
72156;SDS011;60035;52.122;5.406;2024-01-16T02:44:01;3.15;;;0.65;;
72156;SDS011;60035;52.122;5.406;2024-01-16T02:46:28;3.15;;;0.77;;
72156;SDS011;60035;52.122;5.406;2024-01-16T02:48:54;5.15;;;0.82;;
72156;SDS011;60035;52.122;5.406;2024-01-16T02:51:22;5.63;;;1.00;;
72156;SDS011;60035;52.122;5.406;2024-01-16T02:53:48;2.88;;;0.80;;
72156;SDS011;60035;52.122;5.406;2024-01-16T02:56:15;3.55;;;0.68;;
72156;SDS011;60035;52.122;5.406;2024-01-16T02:58:42;3.55;;;0.50;;
72156;SDS011;60035;52.122;5.406;2024-01-16T03:01:24;5.90;;;0.50;;
72156;SDS011;60035;52.122;5.406;2024-01-16T03:03:50;5.78;;;0.85;;
72156;SDS011;60035;52.122;5.406;2024-01-16T03:06:23;5.35;;;0.50;;
72156;SDS011;60035;52.122;5.406;2024-01-16T03:08:51;2.28;;;0.32;;
72156;SDS011;60035;52.122;5.406;2024-01-16T03:14:47;2.38;;;0.30;;
72156;SDS011;60035;52.122;5.406;2024-01-16T03:17:13;1.45;;;0.32;;
72156;SDS011;60035;52.122;5.406;2024-01-16T03:22:29;1.13;;;0.20;;
72156;SDS011;60035;52.122;5.406;2024-01-16T03:24:56;1.98;;;0.30;;
72156;SDS011;60035;52.122;5.406;2024-01-16T03:27:23;2.00;;;0.40;;
72156;SDS011;60035;52.122;5.406;2024-01-16T03:29:54;5.53;;;0.77;;
72156;SDS011;60035;52.122;5.406;2024-01-16T03:32:21;2.97;;;0.38;;
72156;SDS011;60035;52.122;5.406;2024-01-16T03:34:47;2.92;;;0.20;;
72156;SDS011;60035;52.122;5.406;2024-01-16T03:37:14;1.40;;;0.20;;
72156;SDS011;60035;52.122;5.406;2024-01-16T03:39:46;1.00;;;0.20;;
72156;SDS011;60035;52.122;5.406;2024-01-16T03:42:12;3.13;;;0.40;;
72156;SDS011;60035;52.122;5.406;2024-01-16T03:44:39;1.92;;;0.25;;
72156;SDS011;60035;52.122;5.406;2024-01-16T03:47:07;3.42;;;0.70;;
72156;SDS011;60035;52.122;5.406;2024-01-16T03:49:36;3.28;;;0.40;;
72156;SDS011;60035;52.122;5.406;2024-01-16T03:52:03;2.60;;;0.50;;
72156;SDS011;60035;52.122;5.406;2024-01-16T03:54:29;2.00;;;0.52;;
72156;SDS011;60035;52.122;5.406;2024-01-16T03:56:56;3.80;;;0.68;;
72156;SDS011;60035;52.122;5.406;2024-01-16T03:59:26;3.17;;;0.43;;
72156;SDS011;60035;52.122;5.406;2024-01-16T04:01:52;2.67;;;0.45;;
72156;SDS011;60035;52.122;5.406;2024-01-16T04:04:19;1.27;;;0.40;;
72156;SDS011;60035;52.122;5.406;2024-01-16T04:06:46;2.60;;;0.38;;
72156;SDS011;60035;52.122;5.406;2024-01-16T04:12:09;0.63;;;0.28;;
72156;SDS011;60035;52.122;5.406;2024-01-16T04:14:36;3.20;;;0.50;;
72156;SDS011;60035;52.122;5.406;2024-01-16T04:17:02;4.22;;;0.40;;
72156;SDS011;60035;52.122;5.406;2024-01-16T04:19:29;1.40;;;0.30;;
72156;SDS011;60035;52.122;5.406;2024-01-16T04:22:00;2.35;;;0.50;;
72156;SDS011;60035;52.122;5.406;2024-01-16T04:24:27;2.05;;;0.45;;
72156;SDS011;60035;52.122;5.406;2024-01-16T04:26:54;4.00;;;0.50;;
72156;SDS011;60035;52.122;5.406;2024-01-16T04:29:20;2.80;;;0.60;;
72156;SDS011;60035;52.122;5.406;2024-01-16T04:31:47;5.68;;;0.40;;
72156;SDS011;60035;52.122;5.406;2024-01-16T04:34:14;3.28;;;0.40;;
72156;SDS011;60035;52.122;5.406;2024-01-16T04:36:43;1.88;;;0.50;;
72156;SDS011;60035;52.122;5.406;2024-01-16T04:39:24;1.00;;;0.43;;
72156;SDS011;60035;52.122;5.406;2024-01-16T04:41:51;3.80;;;0.70;;
72156;SDS011;60035;52.122;5.406;2024-01-16T04:44:17;3.67;;;0.55;;
72156;SDS011;60035;52.122;5.406;2024-01-16T04:46:44;2.17;;;0.50;;
72156;SDS011;60035;52.122;5.406;2024-01-16T04:49:11;1.85;;;0.40;;
72156;SDS011;60035;52.122;5.406;2024-01-16T04:51:37;5.10;;;0.50;;
72156;SDS011;60035;52.122;5.406;2024-01-16T04:54:03;3.30;;;0.57;;
72156;SDS011;60035;52.122;5.406;2024-01-16T04:56:30;3.78;;;0.65;;
72156;SDS011;60035;52.122;5.406;2024-01-16T04:58:57;3.47;;;0.40;;
72156;SDS011;60035;52.122;5.406;2024-01-16T05:01:23;3.17;;;0.57;;
72156;SDS011;60035;52.122;5.406;2024-01-16T05:03:51;3.10;;;0.55;;
72156;SDS011;60035;52.122;5.406;2024-01-16T05:06:17;6.88;;;0.82;;
72156;SDS011;60035;52.122;5.406;2024-01-16T05:08:44;1.70;;;0.43;;
72156;SDS011;60035;52.122;5.406;2024-01-16T05:11:16;7.28;;;0.80;;
72156;SDS011;60035;52.122;5.406;2024-01-16T05:13:43;2.25;;;0.82;;
72156;SDS011;60035;52.122;5.406;2024-01-16T05:16:09;6.93;;;0.50;;
72156;SDS011;60035;52.122;5.406;2024-01-16T05:18:36;4.38;;;0.93;;
72156;SDS011;60035;52.122;5.406;2024-01-16T05:21:04;4.20;;;1.17;;
72156;SDS011;60035;52.122;5.406;2024-01-16T05:23:30;6.28;;;1.30;;
72156;SDS011;60035;52.122;5.406;2024-01-16T05:25:57;6.57;;;1.05;;
72156;SDS011;60035;52.122;5.406;2024-01-16T05:28:23;6.35;;;1.40;;
72156;SDS011;60035;52.122;5.406;2024-01-16T05:30:51;5.82;;;1.00;;
72156;SDS011;60035;52.122;5.406;2024-01-16T05:33:17;3.50;;;0.85;;
72156;SDS011;60035;52.122;5.406;2024-01-16T05:35:44;6.05;;;1.15;;
72156;SDS011;60035;52.122;5.406;2024-01-16T05:38:11;5.18;;;1.33;;
72156;SDS011;60035;52.122;5.406;2024-01-16T05:40:39;4.00;;;1.20;;
72156;SDS011;60035;52.122;5.406;2024-01-16T05:43:06;4.28;;;1.27;;
72156;SDS011;60035;52.122;5.406;2024-01-16T05:45:32;4.88;;;1.02;;
72156;SDS011;60035;52.122;5.406;2024-01-16T05:47:59;3.30;;;0.88;;
72156;SDS011;60035;52.122;5.406;2024-01-16T05:50:29;5.57;;;1.30;;
72156;SDS011;60035;52.122;5.406;2024-01-16T05:52:56;6.55;;;1.13;;
72156;SDS011;60035;52.122;5.406;2024-01-16T05:55:23;3.78;;;1.23;;
72156;SDS011;60035;52.122;5.406;2024-01-16T05:57:49;4.05;;;1.17;;
72156;SDS011;60035;52.122;5.406;2024-01-16T06:00:34;4.15;;;1.45;;
72156;SDS011;60035;52.122;5.406;2024-01-16T06:03:01;4.00;;;1.38;;
72156;SDS011;60035;52.122;5.406;2024-01-16T06:05:28;3.35;;;0.90;;
72156;SDS011;60035;52.122;5.406;2024-01-16T06:07:54;4.35;;;1.20;;
72156;SDS011;60035;52.122;5.406;2024-01-16T06:10:26;5.20;;;1.20;;
72156;SDS011;60035;52.122;5.406;2024-01-16T06:12:53;4.78;;;1.15;;
72156;SDS011;60035;52.122;5.406;2024-01-16T06:15:19;6.40;;;1.38;;
72156;SDS011;60035;52.122;5.406;2024-01-16T06:17:46;4.57;;;1.60;;
72156;SDS011;60035;52.122;5.406;2024-01-16T06:23:41;3.97;;;0.93;;
72156;SDS011;60035;52.122;5.406;2024-01-16T06:26:08;5.97;;;1.10;;
72156;SDS011;60035;52.122;5.406;2024-01-16T06:28:34;5.70;;;1.60;;
72156;SDS011;60035;52.122;5.406;2024-01-16T06:31:01;6.07;;;1.48;;
72156;SDS011;60035;52.122;5.406;2024-01-16T06:33:28;7.10;;;1.98;;
72156;SDS011;60035;52.122;5.406;2024-01-16T06:35:55;5.63;;;1.13;;
72156;SDS011;60035;52.122;5.406;2024-01-16T06:38:22;4.43;;;1.58;;
72156;SDS011;60035;52.122;5.406;2024-01-16T06:43:39;5.43;;;1.23;;
72156;SDS011;60035;52.122;5.406;2024-01-16T06:46:05;6.05;;;1.40;;
72156;SDS011;60035;52.122;5.406;2024-01-16T06:48:34;5.05;;;1.38;;
72156;SDS011;60035;52.122;5.406;2024-01-16T06:51:10;6.70;;;1.88;;
72156;SDS011;60035;52.122;5.406;2024-01-16T06:53:40;4.18;;;1.42;;
72156;SDS011;60035;52.122;5.406;2024-01-16T06:56:06;7.47;;;1.40;;
72156;SDS011;60035;52.122;5.406;2024-01-16T06:58:34;4.22;;;1.27;;
72156;SDS011;60035;52.122;5.406;2024-01-16T07:01:03;5.57;;;1.88;;
72156;SDS011;60035;52.122;5.406;2024-01-16T07:03:30;8.20;;;1.63;;
72156;SDS011;60035;52.122;5.406;2024-01-16T07:05:56;8.07;;;2.65;;
72156;SDS011;60035;52.122;5.406;2024-01-16T07:08:23;7.78;;;2.50;;
72156;SDS011;60035;52.122;5.406;2024-01-16T07:10:54;9.02;;;2.45;;
72156;SDS011;60035;52.122;5.406;2024-01-16T07:13:20;8.93;;;2.67;;
72156;SDS011;60035;52.122;5.406;2024-01-16T07:15:47;12.25;;;3.47;;
72156;SDS011;60035;52.122;5.406;2024-01-16T07:18:14;7.80;;;3.30;;
72156;SDS011;60035;52.122;5.406;2024-01-16T07:20:43;9.23;;;2.90;;
72156;SDS011;60035;52.122;5.406;2024-01-16T07:23:09;7.35;;;2.63;;
72156;SDS011;60035;52.122;5.406;2024-01-16T07:25:36;12.00;;;2.95;;
72156;SDS011;60035;52.122;5.406;2024-01-16T07:28:02;10.07;;;3.22;;
72156;SDS011;60035;52.122;5.406;2024-01-16T07:33:37;10.82;;;2.90;;
72156;SDS011;60035;52.122;5.406;2024-01-16T07:36:05;12.93;;;3.58;;
72156;SDS011;60035;52.122;5.406;2024-01-16T07:38:32;12.85;;;4.03;;
72156;SDS011;60035;52.122;5.406;2024-01-16T07:41:09;13.65;;;4.60;;
72156;SDS011;60035;52.122;5.406;2024-01-16T07:43:35;9.85;;;3.40;;
72156;SDS011;60035;52.122;5.406;2024-01-16T07:46:02;13.50;;;3.60;;
72156;SDS011;60035;52.122;5.406;2024-01-16T07:48:29;9.80;;;3.63;;
72156;SDS011;60035;52.122;5.406;2024-01-16T07:54:19;11.68;;;3.92;;
72156;SDS011;60035;52.122;5.406;2024-01-16T07:56:46;12.27;;;4.15;;
72156;SDS011;60035;52.122;5.406;2024-01-16T07:59:13;12.10;;;4.72;;
72156;SDS011;60035;52.122;5.406;2024-01-16T08:01:40;11.65;;;4.82;;
72156;SDS011;60035;52.122;5.406;2024-01-16T08:04:07;16.88;;;4.75;;
72156;SDS011;60035;52.122;5.406;2024-01-16T08:06:33;13.40;;;4.78;;
72156;SDS011;60035;52.122;5.406;2024-01-16T08:09:01;16.60;;;4.78;;
72156;SDS011;60035;52.122;5.406;2024-01-16T08:11:28;18.17;;;5.43;;
72156;SDS011;60035;52.122;5.406;2024-01-16T08:13:55;12.57;;;5.18;;
72156;SDS011;60035;52.122;5.406;2024-01-16T08:16:22;13.93;;;4.40;;
72156;SDS011;60035;52.122;5.406;2024-01-16T08:18:49;13.68;;;4.05;;
72156;SDS011;60035;52.122;5.406;2024-01-16T08:21:17;11.23;;;4.20;;
72156;SDS011;60035;52.122;5.406;2024-01-16T08:23:43;10.13;;;3.35;;
72156;SDS011;60035;52.122;5.406;2024-01-16T08:26:10;15.52;;;4.07;;
72156;SDS011;60035;52.122;5.406;2024-01-16T08:28:36;9.55;;;3.47;;
72156;SDS011;60035;52.122;5.406;2024-01-16T08:31:16;10.25;;;3.58;;
72156;SDS011;60035;52.122;5.406;2024-01-16T08:33:43;12.63;;;3.20;;
72156;SDS011;60035;52.122;5.406;2024-01-16T08:36:14;11.15;;;3.00;;
72156;SDS011;60035;52.122;5.406;2024-01-16T08:38:42;11.05;;;3.28;;
72156;SDS011;60035;52.122;5.406;2024-01-16T08:41:22;9.90;;;3.25;;
72156;SDS011;60035;52.122;5.406;2024-01-16T08:43:48;10.15;;;3.40;;
72156;SDS011;60035;52.122;5.406;2024-01-16T08:46:15;14.07;;;3.25;;
72156;SDS011;60035;52.122;5.406;2024-01-16T08:48:41;10.50;;;3.25;;
72156;SDS011;60035;52.122;5.406;2024-01-16T08:51:27;8.32;;;2.97;;
72156;SDS011;60035;52.122;5.406;2024-01-16T08:53:53;8.30;;;2.65;;
72156;SDS011;60035;52.122;5.406;2024-01-16T08:56:20;14.27;;;2.88;;
72156;SDS011;60035;52.122;5.406;2024-01-16T08:58:47;10.35;;;2.90;;
72156;SDS011;60035;52.122;5.406;2024-01-16T09:04:13;11.25;;;3.00;;
72156;SDS011;60035;52.122;5.406;2024-01-16T09:06:39;8.85;;;2.38;;
72156;SDS011;60035;52.122;5.406;2024-01-16T09:09:13;11.02;;;2.70;;
72156;SDS011;60035;52.122;5.406;2024-01-16T09:11:42;10.18;;;2.95;;
72156;SDS011;60035;52.122;5.406;2024-01-16T09:14:08;9.60;;;3.00;;
72156;SDS011;60035;52.122;5.406;2024-01-16T09:16:35;10.63;;;2.60;;
72156;SDS011;60035;52.122;5.406;2024-01-16T09:19:12;12.02;;;2.63;;
72156;SDS011;60035;52.122;5.406;2024-01-16T09:21:38;9.05;;;2.70;;
72156;SDS011;60035;52.122;5.406;2024-01-16T09:24:07;11.02;;;2.88;;
72156;SDS011;60035;52.122;5.406;2024-01-16T09:26:34;8.98;;;2.45;;
72156;SDS011;60035;52.122;5.406;2024-01-16T09:29:11;10.55;;;2.13;;
72156;SDS011;60035;52.122;5.406;2024-01-16T09:31:38;8.88;;;2.13;;
72156;SDS011;60035;52.122;5.406;2024-01-16T09:34:04;10.20;;;2.50;;
72156;SDS011;60035;52.122;5.406;2024-01-16T09:36:35;10.07;;;2.58;;
72156;SDS011;60035;52.122;5.406;2024-01-16T09:39:20;8.32;;;2.10;;
72156;SDS011;60035;52.122;5.406;2024-01-16T09:41:47;7.38;;;2.20;;
72156;SDS011;60035;52.122;5.406;2024-01-16T09:44:15;8.38;;;2.22;;
72156;SDS011;60035;52.122;5.406;2024-01-16T09:46:43;7.35;;;2.10;;
72156;SDS011;60035;52.122;5.406;2024-01-16T09:52:05;4.70;;;1.50;;
72156;SDS011;60035;52.122;5.406;2024-01-16T09:54:32;7.10;;;2.05;;
72156;SDS011;60035;52.122;5.406;2024-01-16T09:56:59;8.98;;;2.20;;
72156;SDS011;60035;52.122;5.406;2024-01-16T09:59:37;7.18;;;1.92;;
72156;SDS011;60035;52.122;5.406;2024-01-16T10:02:07;8.73;;;2.28;;
72156;SDS011;60035;52.122;5.406;2024-01-16T10:04:38;12.88;;;1.92;;
72156;SDS011;60035;52.122;5.406;2024-01-16T10:07:04;9.57;;;2.47;;
72156;SDS011;60035;52.122;5.406;2024-01-16T10:09:33;7.93;;;2.60;;
72156;SDS011;60035;52.122;5.406;2024-01-16T10:12:00;8.32;;;2.63;;
72156;SDS011;60035;52.122;5.406;2024-01-16T10:14:27;8.20;;;2.08;;
72156;SDS011;60035;52.122;5.406;2024-01-16T10:16:54;9.70;;;2.30;;
72156;SDS011;60035;52.122;5.406;2024-01-16T10:19:23;9.07;;;2.50;;
72156;SDS011;60035;52.122;5.406;2024-01-16T10:22:08;6.88;;;2.40;;
72156;SDS011;60035;52.122;5.406;2024-01-16T10:24:34;10.48;;;2.80;;
72156;SDS011;60035;52.122;5.406;2024-01-16T10:27:02;11.35;;;2.13;;
72156;SDS011;60035;52.122;5.406;2024-01-16T10:29:33;8.60;;;2.42;;
72156;SDS011;60035;52.122;5.406;2024-01-16T10:32:17;8.85;;;2.28;;
72156;SDS011;60035;52.122;5.406;2024-01-16T10:35:10;5.65;;;2.13;;
72156;SDS011;60035;52.122;5.406;2024-01-16T10:37:41;7.13;;;2.60;;
72156;SDS011;60035;52.122;5.406;2024-01-16T10:40:27;8.63;;;2.28;;
72156;SDS011;60035;52.122;5.406;2024-01-16T10:42:58;7.50;;;2.63;;
72156;SDS011;60035;52.122;5.406;2024-01-16T10:45:27;9.13;;;2.15;;
72156;SDS011;60035;52.122;5.406;2024-01-16T10:48:03;7.70;;;2.35;;
72156;SDS011;60035;52.122;5.406;2024-01-16T10:50:43;5.68;;;1.77;;
72156;SDS011;60035;52.122;5.406;2024-01-16T10:53:12;5.72;;;2.05;;
72156;SDS011;60035;52.122;5.406;2024-01-16T10:55:52;10.18;;;2.25;;
72156;SDS011;60035;52.122;5.406;2024-01-16T10:58:20;7.28;;;1.92;;
72156;SDS011;60035;52.122;5.406;2024-01-16T11:01:05;9.55;;;2.25;;
72156;SDS011;60035;52.122;5.406;2024-01-16T11:03:45;12.40;;;2.40;;
72156;SDS011;60035;52.122;5.406;2024-01-16T11:06:14;8.18;;;2.05;;
72156;SDS011;60035;52.122;5.406;2024-01-16T11:08:45;6.55;;;1.88;;
72156;SDS011;60035;52.122;5.406;2024-01-16T11:11:13;7.60;;;2.55;;
72156;SDS011;60035;52.122;5.406;2024-01-16T11:13:41;8.07;;;1.88;;
72156;SDS011;60035;52.122;5.406;2024-01-16T11:16:11;7.30;;;2.00;;
72156;SDS011;60035;52.122;5.406;2024-01-16T11:18:38;4.72;;;1.50;;
72156;SDS011;60035;52.122;5.406;2024-01-16T11:21:12;5.20;;;1.55;;
72156;SDS011;60035;52.122;5.406;2024-01-16T11:23:44;8.65;;;1.67;;
72156;SDS011;60035;52.122;5.406;2024-01-16T11:28:59;6.47;;;2.03;;
72156;SDS011;60035;52.122;5.406;2024-01-16T11:31:34;7.07;;;1.85;;
72156;SDS011;60035;52.122;5.406;2024-01-16T11:34:02;7.38;;;1.92;;
72156;SDS011;60035;52.122;5.406;2024-01-16T11:39:09;5.25;;;1.55;;
72156;SDS011;60035;52.122;5.406;2024-01-16T11:47:07;6.63;;;1.83;;
72156;SDS011;60035;52.122;5.406;2024-01-16T11:49:41;5.53;;;1.63;;
72156;SDS011;60035;52.122;5.406;2024-01-16T11:52:08;5.15;;;1.70;;
72156;SDS011;60035;52.122;5.406;2024-01-16T11:54:37;7.32;;;1.70;;
72156;SDS011;60035;52.122;5.406;2024-01-16T12:02:29;7.82;;;1.67;;
72156;SDS011;60035;52.122;5.406;2024-01-16T12:05:04;8.13;;;1.73;;
72156;SDS011;60035;52.122;5.406;2024-01-16T12:07:46;6.40;;;1.63;;
72156;SDS011;60035;52.122;5.406;2024-01-16T12:10:18;4.68;;;1.40;;
72156;SDS011;60035;52.122;5.406;2024-01-16T12:12:47;6.47;;;1.83;;
72156;SDS011;60035;52.122;5.406;2024-01-16T12:15:15;5.47;;;1.40;;
72156;SDS011;60035;52.122;5.406;2024-01-16T12:17:58;6.25;;;1.65;;
72156;SDS011;60035;52.122;5.406;2024-01-16T12:20:43;4.60;;;1.60;;
72156;SDS011;60035;52.122;5.406;2024-01-16T12:23:10;7.40;;;2.00;;
72156;SDS011;60035;52.122;5.406;2024-01-16T12:25:37;4.82;;;1.48;;
72156;SDS011;60035;52.122;5.406;2024-01-16T12:28:24;6.85;;;1.63;;
72156;SDS011;60035;52.122;5.406;2024-01-16T12:31:01;6.20;;;2.10;;
72156;SDS011;60035;52.122;5.406;2024-01-16T12:33:30;7.50;;;2.00;;
72156;SDS011;60035;52.122;5.406;2024-01-16T12:36:00;8.32;;;1.92;;
72156;SDS011;60035;52.122;5.406;2024-01-16T12:38:30;8.13;;;1.85;;
72156;SDS011;60035;52.122;5.406;2024-01-16T12:40:57;7.47;;;2.13;;
72156;SDS011;60035;52.122;5.406;2024-01-16T12:43:28;7.00;;;2.22;;
72156;SDS011;60035;52.122;5.406;2024-01-16T12:45:55;6.53;;;2.20;;
72156;SDS011;60035;52.122;5.406;2024-01-16T12:48:24;6.78;;;1.63;;
72156;SDS011;60035;52.122;5.406;2024-01-16T12:53:39;6.70;;;2.40;;
72156;SDS011;60035;52.122;5.406;2024-01-16T12:56:06;8.73;;;2.78;;
72156;SDS011;60035;52.122;5.406;2024-01-16T12:58:35;10.07;;;2.30;;
72156;SDS011;60035;52.122;5.406;2024-01-16T13:04:17;7.88;;;2.50;;
72156;SDS011;60035;52.122;5.406;2024-01-16T13:06:45;7.93;;;3.00;;
72156;SDS011;60035;52.122;5.406;2024-01-16T13:09:21;5.93;;;2.08;;
72156;SDS011;60035;52.122;5.406;2024-01-16T13:11:49;8.57;;;2.40;;
72156;SDS011;60035;52.122;5.406;2024-01-16T13:14:20;7.80;;;2.22;;
72156;SDS011;60035;52.122;5.406;2024-01-16T13:16:51;10.85;;;2.72;;
72156;SDS011;60035;52.122;5.406;2024-01-16T13:19:20;9.65;;;2.88;;
72156;SDS011;60035;52.122;5.406;2024-01-16T13:21:48;7.18;;;2.22;;
72156;SDS011;60035;52.122;5.406;2024-01-16T13:24:15;7.15;;;2.70;;
72156;SDS011;60035;52.122;5.406;2024-01-16T13:26:44;7.15;;;2.30;;
72156;SDS011;60035;52.122;5.406;2024-01-16T13:29:13;8.02;;;2.70;;
72156;SDS011;60035;52.122;5.406;2024-01-16T13:31:40;7.40;;;2.22;;
72156;SDS011;60035;52.122;5.406;2024-01-16T13:34:07;7.10;;;2.53;;
72156;SDS011;60035;52.122;5.406;2024-01-16T13:36:35;8.27;;;2.20;;
72156;SDS011;60035;52.122;5.406;2024-01-16T13:39:05;9.15;;;2.35;;
72156;SDS011;60035;52.122;5.406;2024-01-16T13:41:39;9.80;;;2.85;;
72156;SDS011;60035;52.122;5.406;2024-01-16T13:44:05;8.40;;;2.80;;
72156;SDS011;60035;52.122;5.406;2024-01-16T13:46:32;8.50;;;2.38;;
72156;SDS011;60035;52.122;5.406;2024-01-16T13:54:36;8.32;;;2.60;;
72156;SDS011;60035;52.122;5.406;2024-01-16T13:57:05;7.45;;;2.58;;
72156;SDS011;60035;52.122;5.406;2024-01-16T14:02:45;6.72;;;2.20;;
72156;SDS011;60035;52.122;5.406;2024-01-16T14:05:14;8.45;;;2.58;;
72156;SDS011;60035;52.122;5.406;2024-01-16T14:07:42;12.27;;;2.28;;
72156;SDS011;60035;52.122;5.406;2024-01-16T14:10:14;7.75;;;2.00;;
72156;SDS011;60035;52.122;5.406;2024-01-16T14:12:41;6.40;;;1.80;;
72156;SDS011;60035;52.122;5.406;2024-01-16T14:15:09;8.43;;;1.70;;
72156;SDS011;60035;52.122;5.406;2024-01-16T14:17:51;6.22;;;2.20;;
72156;SDS011;60035;52.122;5.406;2024-01-16T14:20:20;6.03;;;1.83;;
72156;SDS011;60035;52.122;5.406;2024-01-16T14:22:54;7.55;;;1.70;;
72156;SDS011;60035;52.122;5.406;2024-01-16T14:25:21;5.65;;;1.90;;
72156;SDS011;60035;52.122;5.406;2024-01-16T14:27:56;5.53;;;1.92;;
72156;SDS011;60035;52.122;5.406;2024-01-16T14:30:36;5.38;;;1.70;;
72156;SDS011;60035;52.122;5.406;2024-01-16T14:33:04;8.48;;;2.15;;
72156;SDS011;60035;52.122;5.406;2024-01-16T14:35:33;7.68;;;1.77;;
72156;SDS011;60035;52.122;5.406;2024-01-16T14:38:00;7.82;;;2.08;;
72156;SDS011;60035;52.122;5.406;2024-01-16T14:40:29;8.30;;;2.22;;
72156;SDS011;60035;52.122;5.406;2024-01-16T14:42:56;9.48;;;2.35;;
72156;SDS011;60035;52.122;5.406;2024-01-16T14:45:23;9.63;;;2.75;;
72156;SDS011;60035;52.122;5.406;2024-01-16T14:47:51;6.28;;;2.10;;
72156;SDS011;60035;52.122;5.406;2024-01-16T14:50:22;7.22;;;2.40;;
72156;SDS011;60035;52.122;5.406;2024-01-16T14:52:51;8.60;;;2.38;;
72156;SDS011;60035;52.122;5.406;2024-01-16T14:55:18;7.22;;;2.25;;
72156;SDS011;60035;52.122;5.406;2024-01-16T14:57:46;7.82;;;2.33;;
72156;SDS011;60035;52.122;5.406;2024-01-16T15:00:18;8.68;;;2.13;;
72156;SDS011;60035;52.122;5.406;2024-01-16T15:02:53;7.43;;;2.10;;
72156;SDS011;60035;52.122;5.406;2024-01-16T15:05:20;9.50;;;2.05;;
72156;SDS011;60035;52.122;5.406;2024-01-16T15:07:49;6.80;;;1.83;;
72156;SDS011;60035;52.122;5.406;2024-01-16T15:10:20;8.68;;;2.10;;
72156;SDS011;60035;52.122;5.406;2024-01-16T15:12:47;7.10;;;2.00;;
72156;SDS011;60035;52.122;5.406;2024-01-16T15:15:14;8.82;;;1.90;;
72156;SDS011;60035;52.122;5.406;2024-01-16T15:17:42;7.45;;;2.38;;
72156;SDS011;60035;52.122;5.406;2024-01-16T15:23:14;11.77;;;2.65;;
72156;SDS011;60035;52.122;5.406;2024-01-16T15:25:41;11.23;;;2.53;;
72156;SDS011;60035;52.122;5.406;2024-01-16T15:28:08;7.97;;;2.28;;
72156;SDS011;60035;52.122;5.406;2024-01-16T15:30:51;9.50;;;2.60;;
72156;SDS011;60035;52.122;5.406;2024-01-16T15:33:19;9.13;;;2.50;;
72156;SDS011;60035;52.122;5.406;2024-01-16T15:35:46;7.05;;;2.03;;
72156;SDS011;60035;52.122;5.406;2024-01-16T15:38:13;7.78;;;1.95;;
72156;SDS011;60035;52.122;5.406;2024-01-16T15:40:46;6.60;;;2.20;;
72156;SDS011;60035;52.122;5.406;2024-01-16T15:43:13;8.13;;;2.22;;
72156;SDS011;60035;52.122;5.406;2024-01-16T15:45:39;7.85;;;2.55;;
72156;SDS011;60035;52.122;5.406;2024-01-16T15:48:07;7.47;;;2.75;;
72156;SDS011;60035;52.122;5.406;2024-01-16T15:50:34;7.85;;;2.53;;
72156;SDS011;60035;52.122;5.406;2024-01-16T15:53:01;6.38;;;2.30;;
72156;SDS011;60035;52.122;5.406;2024-01-16T15:55:28;6.82;;;2.42;;
72156;SDS011;60035;52.122;5.406;2024-01-16T15:57:54;5.70;;;2.00;;
72156;SDS011;60035;52.122;5.406;2024-01-16T16:00:22;8.93;;;2.47;;
72156;SDS011;60035;52.122;5.406;2024-01-16T16:02:49;6.93;;;2.17;;
72156;SDS011;60035;52.122;5.406;2024-01-16T16:05:16;9.50;;;2.08;;
72156;SDS011;60035;52.122;5.406;2024-01-16T16:07:43;11.15;;;2.70;;
72156;SDS011;60035;52.122;5.406;2024-01-16T16:10:24;6.82;;;2.20;;
72156;SDS011;60035;52.122;5.406;2024-01-16T16:12:53;8.57;;;2.85;;
72156;SDS011;60035;52.122;5.406;2024-01-16T16:15:20;16.13;;;3.35;;